createdAt,value
2017-03-19T00:00:20.797Z,1001.67
2017-03-19T00:01:33.031Z,1001.7
2017-03-19T00:02:45.561Z,1001.78
2017-03-19T00:03:57.806Z,1001.79
2017-03-19T00:05:10.344Z,1001.74
2017-03-19T00:06:22.569Z,1001.77
2017-03-19T00:07:35.098Z,1001.79
2017-03-19T00:08:47.643Z,1001.82
2017-03-19T00:10:00.168Z,1001.92
2017-03-19T00:11:12.709Z,1001.91
2017-03-19T00:12:24.953Z,1001.97
2017-03-19T00:13:37.452Z,1001.98
2017-03-19T00:14:49.992Z,1001.98
2017-03-19T00:16:02.247Z,1001.97
2017-03-19T00:17:14.769Z,1001.99
2017-03-19T00:18:26.700Z,1001.97
2017-03-19T00:19:39.203Z,1001.94
2017-03-19T00:20:51.732Z,1001.98
2017-03-19T00:22:04.275Z,1002.01
2017-03-19T00:23:16.792Z,1001.99
2017-03-19T00:24:29.336Z,1001.99
2017-03-19T00:25:41.524Z,1001.99
2017-03-19T00:26:54.031Z,1001.98
2017-03-19T00:28:06.574Z,1001.98
2017-03-19T00:29:18.813Z,1002
2017-03-19T00:30:31.059Z,1002.02
2017-03-19T00:31:43.257Z,1002.01
2017-03-19T00:32:55.489Z,1002.1
2017-03-19T00:34:08.009Z,1002.1
2017-03-19T00:35:19.929Z,1002.12
2017-03-19T00:36:32.463Z,1002.15
2017-03-19T00:37:44.987Z,1002.11
2017-03-19T00:38:57.205Z,1002.07
2017-03-19T00:40:09.758Z,1002.08
2017-03-19T00:41:21.375Z,1002.14
2017-03-19T00:42:33.925Z,1002.03
2017-03-19T00:43:46.448Z,1002.08
2017-03-19T00:44:59.013Z,1002.07
2017-03-19T00:46:10.931Z,1002.04
2017-03-19T00:47:23.154Z,1002.03
2017-03-19T00:48:35.723Z,1002.06
2017-03-19T00:49:48.230Z,1002
2017-03-19T00:51:00.770Z,1002
2017-03-19T00:52:13.289Z,1001.99
2017-03-19T00:53:25.843Z,1002
2017-03-19T00:54:38.388Z,1002.02
2017-03-19T00:55:50.307Z,1002.04
2017-03-19T00:57:02.821Z,1002.1
2017-03-19T00:58:15.372Z,1002.02
2017-03-19T00:59:27.589Z,1002.06
2017-03-19T01:00:39.842Z,1002.16
2017-03-19T01:01:52.360Z,1002.14
2017-03-19T01:03:04.903Z,1002.15
2017-03-19T01:04:17.431Z,1002.21
2017-03-19T01:05:29.651Z,1002.27
2017-03-19T01:06:41.886Z,1002.22
2017-03-19T01:07:53.795Z,1002.29
2017-03-19T01:09:06.316Z,1002.22
2017-03-19T01:10:18.823Z,1002.35
2017-03-19T01:11:30.727Z,1002.32
2017-03-19T01:12:42.945Z,1002.35
2017-03-19T01:13:55.469Z,1002.35
2017-03-19T01:15:08.012Z,1002.36
2017-03-19T01:16:20.536Z,1002.35
2017-03-19T01:17:32.764Z,1002.4
2017-03-19T01:18:45.006Z,1002.35
2017-03-19T01:19:57.554Z,1002.36
2017-03-19T01:21:09.791Z,1002.38
2017-03-19T01:22:22.032Z,1002.41
2017-03-19T01:23:34.239Z,1002.39
2017-03-19T01:24:46.775Z,1002.44
2017-03-19T01:25:59.296Z,1002.4
2017-03-19T01:27:11.816Z,1002.4
2017-03-19T01:28:24.320Z,1002.43
2017-03-19T01:29:36.820Z,1002.47
2017-03-19T01:30:49.358Z,1002.44
2017-03-19T01:32:01.579Z,1002.47
2017-03-19T01:33:14.099Z,1002.43
2017-03-19T01:34:26.363Z,1002.44
2017-03-19T01:35:38.891Z,1002.48
2017-03-19T01:36:51.413Z,1002.53
2017-03-19T01:38:04.213Z,1002.53
2017-03-19T01:39:16.754Z,1002.5
2017-03-19T01:40:28.997Z,1002.53
2017-03-19T01:41:41.517Z,1002.54
2017-03-19T01:42:54.070Z,1002.57
2017-03-19T01:44:06.599Z,1002.59
2017-03-19T01:45:19.130Z,1002.6
2017-03-19T01:46:31.676Z,1002.6
2017-03-19T01:47:44.204Z,1002.56
2017-03-19T01:48:56.455Z,1002.63
2017-03-19T01:50:08.696Z,1002.64
2017-03-19T01:51:20.922Z,1002.66
2017-03-19T01:52:33.461Z,1002.68
2017-03-19T01:53:45.077Z,1002.61
2017-03-19T01:54:57.309Z,1002.69
2017-03-19T01:56:09.877Z,1002.78
2017-03-19T01:57:22.389Z,1002.81
2017-03-19T01:58:34.563Z,1002.83
2017-03-19T01:59:47.089Z,1002.87
2017-03-19T02:00:59.336Z,1002.87
2017-03-19T02:02:11.559Z,1002.89
2017-03-19T02:03:24.085Z,1002.87
2017-03-19T02:04:36.618Z,1002.85
2017-03-19T02:05:48.851Z,1002.87
2017-03-19T02:07:01.085Z,1002.84
2017-03-19T02:08:13.640Z,1002.89
2017-03-19T02:09:26.183Z,1002.94
2017-03-19T02:10:38.657Z,1002.89
2017-03-19T02:11:50.894Z,1002.89
2017-03-19T02:13:03.421Z,1002.97
2017-03-19T02:14:15.983Z,1002.91
2017-03-19T02:15:28.505Z,1002.96
2017-03-19T02:16:40.759Z,1003
2017-03-19T02:17:53.295Z,1002.95
2017-03-19T02:19:05.802Z,1002.93
2017-03-19T02:20:18.356Z,1002.96
2017-03-19T02:21:30.891Z,1002.94
2017-03-19T02:22:43.392Z,1002.92
2017-03-19T02:23:55.931Z,1002.97
2017-03-19T02:25:08.445Z,1003
2017-03-19T02:26:20.974Z,1002.99
2017-03-19T02:27:33.187Z,1003.01
2017-03-19T02:28:45.393Z,1003.01
2017-03-19T02:29:57.915Z,1003.07
2017-03-19T02:31:10.449Z,1003.08
2017-03-19T02:32:22.685Z,1003.09
2017-03-19T02:33:34.929Z,1003.16
2017-03-19T02:34:47.195Z,1003.19
2017-03-19T02:35:59.733Z,1003.17
2017-03-19T02:37:12.242Z,1003.18
2017-03-19T02:38:24.762Z,1003.14
2017-03-19T02:39:37.303Z,1003.13
2017-03-19T02:40:49.554Z,1003.13
2017-03-19T02:42:01.788Z,1003.12
2017-03-19T02:43:14.566Z,1003.16
2017-03-19T02:44:27.125Z,1003.11
2017-03-19T02:45:39.633Z,1003.08
2017-03-19T02:46:52.145Z,1003.11
2017-03-19T02:48:04.650Z,1003.04
2017-03-19T02:49:17.148Z,1003.09
2017-03-19T02:50:29.695Z,1003.1
2017-03-19T02:51:41.930Z,1003.11
2017-03-19T02:52:54.451Z,1003.15
2017-03-19T02:54:07.000Z,1003.18
2017-03-19T02:55:19.252Z,1003.16
2017-03-19T02:56:31.488Z,1003.21
2017-03-19T02:57:44.009Z,1003.22
2017-03-19T02:58:56.542Z,1003.27
2017-03-19T03:00:09.086Z,1003.26
2017-03-19T03:01:21.350Z,1003.25
2017-03-19T03:02:33.580Z,1003.27
2017-03-19T03:03:46.099Z,1003.27
2017-03-19T03:04:58.300Z,1003.32
2017-03-19T03:06:10.859Z,1003.27
2017-03-19T03:07:23.141Z,1003.28
2017-03-19T03:08:35.359Z,1003.32
2017-03-19T03:09:47.869Z,1003.31
2017-03-19T03:11:00.440Z,1003.32
2017-03-19T03:12:12.949Z,1003.36
2017-03-19T03:13:25.442Z,1003.33
2017-03-19T03:14:37.956Z,1003.33
2017-03-19T03:15:50.501Z,1003.32
2017-03-19T03:17:03.019Z,1003.37
2017-03-19T03:18:15.569Z,1003.34
2017-03-19T03:19:28.123Z,1003.37
2017-03-19T03:20:40.356Z,1003.37
2017-03-19T03:21:52.885Z,1003.38
2017-03-19T03:23:05.382Z,1003.34
2017-03-19T03:24:17.895Z,1003.39
2017-03-19T03:25:30.452Z,1003.38
2017-03-19T03:26:42.972Z,1003.3
2017-03-19T03:27:55.195Z,1003.31
2017-03-19T03:29:07.705Z,1003.39
2017-03-19T03:30:20.209Z,1003.39
2017-03-19T03:31:32.179Z,1003.41
2017-03-19T03:32:44.097Z,1003.37
2017-03-19T03:33:56.316Z,1003.43
2017-03-19T03:35:08.874Z,1003.4
2017-03-19T03:36:21.110Z,1003.38
2017-03-19T03:37:33.349Z,1003.37
2017-03-19T03:38:45.844Z,1003.43
2017-03-19T03:39:57.769Z,1003.43
2017-03-19T03:41:10.316Z,1003.45
2017-03-19T03:42:22.865Z,1003.48
2017-03-19T03:43:35.089Z,1003.46
2017-03-19T03:44:47.361Z,1003.51
2017-03-19T03:45:59.578Z,1003.5
2017-03-19T03:47:12.109Z,1003.54
2017-03-19T03:48:24.901Z,1003.56
2017-03-19T03:49:37.434Z,1003.56
2017-03-19T03:50:49.632Z,1003.62
2017-03-19T03:52:02.155Z,1003.56
2017-03-19T03:53:14.654Z,1003.54
2017-03-19T03:54:27.146Z,1003.51
2017-03-19T03:55:39.652Z,1003.49
2017-03-19T03:56:52.172Z,1003.55
2017-03-19T03:58:04.734Z,1003.56
2017-03-19T03:59:17.255Z,1003.59
2017-03-19T04:00:29.784Z,1003.57
2017-03-19T04:01:42.330Z,1003.58
2017-03-19T04:02:54.846Z,1003.52
2017-03-19T04:04:07.385Z,1003.56
2017-03-19T04:05:19.932Z,1003.56
2017-03-19T04:06:32.179Z,1003.49
2017-03-19T04:07:44.680Z,1003.54
2017-03-19T04:08:56.930Z,1003.52
2017-03-19T04:10:09.742Z,1003.53
2017-03-19T04:11:21.967Z,1003.54
2017-03-19T04:12:34.481Z,1003.56
2017-03-19T04:13:46.702Z,1003.53
2017-03-19T04:14:59.237Z,1003.58
2017-03-19T04:16:11.779Z,1003.58
2017-03-19T04:17:24.326Z,1003.57
2017-03-19T04:18:36.881Z,1003.65
2017-03-19T04:19:49.413Z,1003.69
2017-03-19T04:21:01.663Z,1003.72
2017-03-19T04:22:13.880Z,1003.7
2017-03-19T04:23:26.131Z,1003.7
2017-03-19T04:24:38.665Z,1003.7
2017-03-19T04:25:51.193Z,1003.68
2017-03-19T04:27:03.743Z,1003.65
2017-03-19T04:28:16.289Z,1003.61
2017-03-19T04:29:28.553Z,1003.6
2017-03-19T04:30:41.078Z,1003.6
2017-03-19T04:31:53.345Z,1003.6
2017-03-19T04:33:05.869Z,1003.57
2017-03-19T04:34:18.418Z,1003.57
2017-03-19T04:35:30.981Z,1003.59
2017-03-19T04:36:43.535Z,1003.64
2017-03-19T04:37:55.769Z,1003.64
2017-03-19T04:39:07.697Z,1003.71
2017-03-19T04:40:20.220Z,1003.73
2017-03-19T04:41:32.773Z,1003.78
2017-03-19T04:42:44.937Z,1003.71
2017-03-19T04:43:57.486Z,1003.69
2017-03-19T04:45:09.999Z,1003.65
2017-03-19T04:46:22.525Z,1003.68
2017-03-19T04:47:35.045Z,1003.71
2017-03-19T04:48:46.962Z,1003.7
2017-03-19T04:49:59.530Z,1003.68
2017-03-19T04:51:12.080Z,1003.66
2017-03-19T04:52:24.031Z,1003.7
2017-03-19T04:53:36.279Z,1003.66
2017-03-19T04:54:48.223Z,1003.67
2017-03-19T04:56:00.784Z,1003.68
2017-03-19T04:57:13.004Z,1003.73
2017-03-19T04:58:25.238Z,1003.78
2017-03-19T04:59:37.450Z,1003.8
2017-03-19T05:00:49.668Z,1003.86
2017-03-19T05:02:02.192Z,1003.87
2017-03-19T05:03:14.434Z,1003.93
2017-03-19T05:04:26.991Z,1003.92
2017-03-19T05:05:39.213Z,1003.87
2017-03-19T05:06:51.748Z,1003.89
2017-03-19T05:08:04.279Z,1003.86
2017-03-19T05:09:16.521Z,1003.82
2017-03-19T05:10:28.749Z,1003.84
2017-03-19T05:11:41.284Z,1003.91
2017-03-19T05:12:53.518Z,1003.92
2017-03-19T05:14:06.031Z,1003.93
2017-03-19T05:15:18.268Z,1003.94
2017-03-19T05:16:30.767Z,1003.94
2017-03-19T05:17:42.998Z,1003.98
2017-03-19T05:18:55.540Z,1003.98
2017-03-19T05:20:08.083Z,1004
2017-03-19T05:21:20.627Z,1004
2017-03-19T05:22:33.180Z,1004.02
2017-03-19T05:23:45.739Z,1004.03
2017-03-19T05:24:57.971Z,1004.07
2017-03-19T05:26:10.470Z,1004.11
2017-03-19T05:27:22.692Z,1004.14
2017-03-19T05:28:35.223Z,1004.17
2017-03-19T05:29:47.445Z,1004.19
2017-03-19T05:30:59.994Z,1004.19
2017-03-19T05:32:12.187Z,1004.25
2017-03-19T05:33:24.717Z,1004.26
2017-03-19T05:34:36.960Z,1004.24
2017-03-19T05:35:49.509Z,1004.24
2017-03-19T05:37:01.981Z,1004.3
2017-03-19T05:38:14.499Z,1004.3
2017-03-19T05:39:26.447Z,1004.3
2017-03-19T05:40:38.990Z,1004.34
2017-03-19T05:41:51.482Z,1004.39
2017-03-19T05:43:04.007Z,1004.4
2017-03-19T05:44:16.553Z,1004.39
2017-03-19T05:45:29.070Z,1004.37
2017-03-19T05:46:41.587Z,1004.41
2017-03-19T05:47:54.041Z,1004.32
2017-03-19T05:49:06.582Z,1004.33
2017-03-19T05:50:19.111Z,1004.38
2017-03-19T05:51:31.619Z,1004.39
2017-03-19T05:52:43.857Z,1004.41
2017-03-19T05:53:56.092Z,1004.42
2017-03-19T05:55:08.341Z,1004.41
2017-03-19T05:56:20.565Z,1004.43
2017-03-19T05:57:33.112Z,1004.46
2017-03-19T05:58:45.399Z,1004.43
2017-03-19T05:59:57.945Z,1004.46
2017-03-19T06:01:10.496Z,1004.47
2017-03-19T06:02:22.712Z,1004.44
2017-03-19T06:03:35.236Z,1004.44
2017-03-19T06:04:47.751Z,1004.45
2017-03-19T06:05:59.696Z,1004.43
2017-03-19T06:07:11.892Z,1004.43
2017-03-19T06:08:24.121Z,1004.4
2017-03-19T06:09:36.646Z,1004.37
2017-03-19T06:10:49.188Z,1004.33
2017-03-19T06:12:01.709Z,1004.3
2017-03-19T06:13:14.205Z,1004.25
2017-03-19T06:14:26.732Z,1004.26
2017-03-19T06:15:38.976Z,1004.26
2017-03-19T06:16:51.517Z,1004.29
2017-03-19T06:18:04.035Z,1004.32
2017-03-19T06:19:16.563Z,1004.34
2017-03-19T06:20:29.083Z,1004.41
2017-03-19T06:21:41.669Z,1004.46
2017-03-19T06:22:54.217Z,1004.49
2017-03-19T06:24:06.771Z,1004.47
2017-03-19T06:25:18.709Z,1004.53
2017-03-19T06:26:31.260Z,1004.49
2017-03-19T06:27:43.802Z,1004.54
2017-03-19T06:28:56.351Z,1004.55
2017-03-19T06:30:08.894Z,1004.57
2017-03-19T06:31:21.420Z,1004.61
2017-03-19T06:32:33.639Z,1004.59
2017-03-19T06:33:46.206Z,1004.57
2017-03-19T06:34:58.424Z,1004.67
2017-03-19T06:36:10.955Z,1004.62
2017-03-19T06:37:23.165Z,1004.65
2017-03-19T06:38:35.697Z,1004.66
2017-03-19T06:39:48.214Z,1004.66
2017-03-19T06:41:00.741Z,1004.67
2017-03-19T06:42:13.532Z,1004.65
2017-03-19T06:43:25.444Z,1004.64
2017-03-19T06:44:37.969Z,1004.68
2017-03-19T06:45:50.186Z,1004.62
2017-03-19T06:47:02.120Z,1004.68
2017-03-19T06:48:14.657Z,1004.68
2017-03-19T06:49:27.235Z,1004.72
2017-03-19T06:50:39.782Z,1004.71
2017-03-19T06:51:52.353Z,1004.72
2017-03-19T06:53:04.902Z,1004.71
2017-03-19T06:54:17.132Z,1004.66
2017-03-19T06:55:29.339Z,1004.69
2017-03-19T06:56:41.880Z,1004.73
2017-03-19T06:57:54.421Z,1004.75
2017-03-19T06:59:06.649Z,1004.8
2017-03-19T07:00:19.194Z,1004.81
2017-03-19T07:01:31.716Z,1004.78
2017-03-19T07:02:44.261Z,1004.76
2017-03-19T07:03:56.479Z,1004.75
2017-03-19T07:05:09.025Z,1004.74
2017-03-19T07:06:21.217Z,1004.79
2017-03-19T07:07:33.421Z,1004.74
2017-03-19T07:08:45.917Z,1004.73
2017-03-19T07:09:58.138Z,1004.79
2017-03-19T07:11:10.651Z,1004.76
2017-03-19T07:12:22.580Z,1004.78
2017-03-19T07:13:35.100Z,1004.78
2017-03-19T07:14:47.351Z,1004.76
2017-03-19T07:15:59.892Z,1004.71
2017-03-19T07:17:12.391Z,1004.71
2017-03-19T07:18:24.940Z,1004.7
2017-03-19T07:19:37.481Z,1004.69
2017-03-19T07:20:49.729Z,1004.68
2017-03-19T07:22:01.951Z,1004.64
2017-03-19T07:23:14.188Z,1004.62
2017-03-19T07:24:26.411Z,1004.61
2017-03-19T07:25:38.913Z,1004.58
2017-03-19T07:26:51.459Z,1004.59
2017-03-19T07:28:03.701Z,1004.57
2017-03-19T07:29:16.222Z,1004.61
2017-03-19T07:30:28.770Z,1004.62
2017-03-19T07:31:41.315Z,1004.64
2017-03-19T07:32:53.844Z,1004.66
2017-03-19T07:34:06.377Z,1004.7
2017-03-19T07:35:18.897Z,1004.64
2017-03-19T07:36:31.415Z,1004.67
2017-03-19T07:37:43.639Z,1004.7
2017-03-19T07:38:56.179Z,1004.73
2017-03-19T07:40:08.387Z,1004.67
2017-03-19T07:41:20.331Z,1004.64
2017-03-19T07:42:32.883Z,1004.66
2017-03-19T07:43:45.452Z,1004.63
2017-03-19T07:44:57.997Z,1004.61
2017-03-19T07:46:10.244Z,1004.6
2017-03-19T07:47:22.782Z,1004.58
2017-03-19T07:48:34.736Z,1004.58
2017-03-19T07:49:47.295Z,1004.53
2017-03-19T07:50:59.526Z,1004.53
2017-03-19T07:52:12.062Z,1004.52
2017-03-19T07:53:24.294Z,1004.57
2017-03-19T07:54:36.811Z,1004.57
2017-03-19T07:55:49.353Z,1004.58
2017-03-19T07:57:01.899Z,1004.55
2017-03-19T07:58:14.707Z,1004.51
2017-03-19T07:59:27.245Z,1004.5
2017-03-19T08:00:39.451Z,1004.48
2017-03-19T08:01:51.985Z,1004.44
2017-03-19T08:03:03.911Z,1004.42
2017-03-19T08:04:16.158Z,1004.39
2017-03-19T08:05:28.702Z,1004.39
2017-03-19T08:06:41.217Z,1004.37
2017-03-19T08:07:53.749Z,1004.34
2017-03-19T08:09:05.687Z,1004.34
2017-03-19T08:10:18.238Z,1004.3
2017-03-19T08:11:30.482Z,1004.31
2017-03-19T08:12:43.024Z,1004.24
2017-03-19T08:13:55.246Z,1004.21
2017-03-19T08:15:07.458Z,1004.2
2017-03-19T08:16:19.659Z,1004.14
2017-03-19T08:17:31.892Z,1004.11
2017-03-19T08:18:44.452Z,1004.08
2017-03-19T08:19:56.701Z,1004.07
2017-03-19T08:21:09.242Z,1004
2017-03-19T08:22:21.742Z,1004
2017-03-19T08:23:34.320Z,1003.97
2017-03-19T08:24:46.865Z,1003.99
2017-03-19T08:25:59.406Z,1003.9
2017-03-19T08:27:11.030Z,1003.86
2017-03-19T08:28:23.568Z,1003.9
2017-03-19T08:29:35.821Z,1003.83
2017-03-19T08:30:48.358Z,1003.76
2017-03-19T08:32:00.259Z,1003.79
2017-03-19T08:33:12.484Z,1003.75
2017-03-19T08:34:24.103Z,1003.69
2017-03-19T08:35:36.652Z,1003.68
2017-03-19T08:36:49.170Z,1003.63
2017-03-19T08:38:01.391Z,1003.62
2017-03-19T08:39:13.588Z,1003.64
2017-03-19T08:40:26.156Z,1003.6
2017-03-19T08:41:38.418Z,1003.54
2017-03-19T08:42:50.947Z,1003.5
2017-03-19T08:44:03.211Z,1003.5
2017-03-19T08:45:15.721Z,1003.48
2017-03-19T08:46:27.965Z,1003.41
2017-03-19T08:47:40.506Z,1003.49
2017-03-19T08:48:53.081Z,1003.47
2017-03-19T08:50:05.601Z,1003.48
2017-03-19T08:51:17.518Z,1003.46
2017-03-19T08:52:29.469Z,1003.53
2017-03-19T08:53:42.032Z,1003.59
2017-03-19T08:54:54.563Z,1003.57
2017-03-19T08:56:06.804Z,1003.51
2017-03-19T08:57:18.427Z,1003.5
2017-03-19T08:58:30.946Z,1003.5
2017-03-19T08:59:43.195Z,1003.56
2017-03-19T09:00:55.454Z,1003.54
2017-03-19T09:02:07.674Z,1003.58
2017-03-19T09:03:20.453Z,1003.61
2017-03-19T09:04:32.699Z,1003.57
2017-03-19T09:05:45.246Z,1003.6
2017-03-19T09:06:57.792Z,1003.56
2017-03-19T09:08:10.315Z,1003.52
2017-03-19T09:09:22.864Z,1003.48
2017-03-19T09:10:35.108Z,1003.47
2017-03-19T09:11:47.667Z,1003.47
2017-03-19T09:13:00.166Z,1003.46
2017-03-19T09:14:12.717Z,1003.44
2017-03-19T09:15:25.269Z,1003.42
2017-03-19T09:16:37.509Z,1003.4
2017-03-19T09:17:49.431Z,1003.4
2017-03-19T09:19:01.650Z,1003.37
2017-03-19T09:20:14.225Z,1003.39
2017-03-19T09:21:26.463Z,1003.4
2017-03-19T09:22:38.740Z,1003.45
2017-03-19T09:23:51.005Z,1003.45
2017-03-19T09:25:03.232Z,1003.43
2017-03-19T09:26:15.482Z,1003.42
2017-03-19T09:27:28.018Z,1003.38
2017-03-19T09:28:40.560Z,1003.36
2017-03-19T09:29:53.095Z,1003.31
2017-03-19T09:31:05.326Z,1003.28
2017-03-19T09:32:17.232Z,1003.27
2017-03-19T09:33:29.780Z,1003.26
2017-03-19T09:34:42.039Z,1003.21
2017-03-19T09:35:54.589Z,1003.17
2017-03-19T09:37:07.114Z,1003.22
2017-03-19T09:38:19.662Z,1003.21
2017-03-19T09:39:32.210Z,1003.23
2017-03-19T09:40:44.430Z,1003.23
2017-03-19T09:41:56.977Z,1003.18
2017-03-19T09:43:09.223Z,1003.18
2017-03-19T09:44:21.789Z,1003.23
2017-03-19T09:45:34.339Z,1003.25
2017-03-19T09:46:46.883Z,1003.23
2017-03-19T09:47:59.430Z,1003.18
2017-03-19T09:49:11.377Z,1003.19
2017-03-19T09:50:23.298Z,1003.15
2017-03-19T09:51:35.594Z,1003.12
2017-03-19T09:52:47.816Z,1003.1
2017-03-19T09:54:00.361Z,1003.05
2017-03-19T09:55:12.598Z,1003.02
2017-03-19T09:56:24.851Z,1002.93
2017-03-19T09:57:37.093Z,1002.99
2017-03-19T09:58:49.343Z,1002.91
2017-03-19T10:00:01.561Z,1002.91
2017-03-19T10:01:13.811Z,1002.91
2017-03-19T10:02:25.756Z,1002.88
2017-03-19T10:03:38.274Z,1002.86
2017-03-19T10:04:50.812Z,1002.85
2017-03-19T10:06:03.333Z,1002.79
2017-03-19T10:07:15.881Z,1002.8
2017-03-19T10:08:27.813Z,1002.81
2017-03-19T10:09:40.350Z,1002.78
2017-03-19T10:10:52.891Z,1002.8
2017-03-19T10:12:05.423Z,1002.77
2017-03-19T10:13:17.966Z,1002.8
2017-03-19T10:14:30.205Z,1002.8
2017-03-19T10:15:42.112Z,1002.8
2017-03-19T10:16:54.657Z,1002.8
2017-03-19T10:18:07.220Z,1002.83
2017-03-19T10:19:19.416Z,1002.84
2017-03-19T10:20:31.974Z,1002.82
2017-03-19T10:21:44.491Z,1002.8
2017-03-19T10:22:56.737Z,1002.75
2017-03-19T10:24:08.983Z,1002.79
2017-03-19T10:25:20.929Z,1002.77
2017-03-19T10:26:33.206Z,1002.77
2017-03-19T10:27:45.745Z,1002.81
2017-03-19T10:28:58.308Z,1002.82
2017-03-19T10:30:10.842Z,1002.81
2017-03-19T10:31:23.105Z,1002.76
2017-03-19T10:32:35.644Z,1002.78
2017-03-19T10:33:48.176Z,1002.76
2017-03-19T10:35:00.395Z,1002.73
2017-03-19T10:36:12.919Z,1002.67
2017-03-19T10:37:25.459Z,1002.66
2017-03-19T10:38:37.412Z,1002.64
2017-03-19T10:39:49.647Z,1002.57
2017-03-19T10:41:02.200Z,1002.61
2017-03-19T10:42:14.422Z,1002.55
2017-03-19T10:43:26.669Z,1002.5
2017-03-19T10:44:39.213Z,1002.51
2017-03-19T10:45:51.774Z,1002.47
2017-03-19T10:47:04.307Z,1002.42
2017-03-19T10:48:16.252Z,1002.36
2017-03-19T10:49:28.771Z,1002.32
2017-03-19T10:50:40.996Z,1002.31
2017-03-19T10:51:53.535Z,1002.24
2017-03-19T10:53:05.484Z,1002.26
2017-03-19T10:54:18.081Z,1002.21
2017-03-19T10:55:30.366Z,1002.2
2017-03-19T10:56:42.598Z,1002.15
2017-03-19T10:57:55.094Z,1002.12
2017-03-19T10:59:07.639Z,1002.16
2017-03-19T11:00:19.902Z,1002.13
2017-03-19T11:01:32.155Z,1002.13
2017-03-19T11:02:44.699Z,1002.12
2017-03-19T11:03:57.228Z,1002.14
2017-03-19T11:05:09.777Z,1002.09
2017-03-19T11:06:22.313Z,1002.07
2017-03-19T11:07:34.549Z,1002.08
2017-03-19T11:08:47.092Z,1002.07
2017-03-19T11:09:59.628Z,1002.04
2017-03-19T11:11:12.170Z,1001.97
2017-03-19T11:12:24.695Z,1001.96
2017-03-19T11:13:37.239Z,1002.02
2017-03-19T11:14:49.788Z,1002.02
2017-03-19T11:16:02.358Z,1001.99
2017-03-19T11:17:14.900Z,1001.95
2017-03-19T11:18:27.423Z,1001.93
2017-03-19T11:19:39.968Z,1001.88
2017-03-19T11:20:51.892Z,1001.87
2017-03-19T11:22:04.155Z,1001.87
2017-03-19T11:23:16.734Z,1001.86
2017-03-19T11:24:29.004Z,1001.81
2017-03-19T11:25:41.225Z,1001.8
2017-03-19T11:26:53.745Z,1001.79
2017-03-19T11:28:05.989Z,1001.73
2017-03-19T11:29:18.504Z,1001.69
2017-03-19T11:30:30.734Z,1001.67
2017-03-19T11:31:43.271Z,1001.65
2017-03-19T11:32:55.515Z,1001.65
2017-03-19T11:34:08.044Z,1001.54
2017-03-19T11:35:19.992Z,1001.61
2017-03-19T11:36:32.214Z,1001.61
2017-03-19T11:37:44.737Z,1001.53
2017-03-19T11:38:56.977Z,1001.55
2017-03-19T11:40:09.521Z,1001.54
2017-03-19T11:41:21.785Z,1001.57
2017-03-19T11:42:34.018Z,1001.46
2017-03-19T11:43:46.562Z,1001.5
2017-03-19T11:44:59.106Z,1001.46
2017-03-19T11:46:11.629Z,1001.45
2017-03-19T11:47:24.165Z,1001.45
2017-03-19T11:48:36.687Z,1001.38
2017-03-19T11:49:49.235Z,1001.43
2017-03-19T11:51:01.463Z,1001.42
2017-03-19T11:52:14.006Z,1001.34
2017-03-19T11:53:26.220Z,1001.3
2017-03-19T11:54:38.750Z,1001.23
2017-03-19T11:55:50.689Z,1001.23
2017-03-19T11:57:02.865Z,1001.24
2017-03-19T11:58:15.119Z,1001.23
2017-03-19T11:59:27.358Z,1001.15
2017-03-19T12:00:39.599Z,1001.13
2017-03-19T12:01:52.127Z,1001.07
2017-03-19T12:03:04.665Z,1001
2017-03-19T12:04:17.215Z,1000.99
2017-03-19T12:05:29.140Z,1000.97
2017-03-19T12:06:41.682Z,1000.83
2017-03-19T12:07:54.178Z,1000.75
2017-03-19T12:09:06.429Z,1000.7
2017-03-19T12:10:18.673Z,1000.78
2017-03-19T12:11:30.896Z,1000.81
2017-03-19T12:12:42.812Z,1000.68
2017-03-19T12:13:55.334Z,1000.64
2017-03-19T12:15:07.281Z,1000.64
2017-03-19T12:16:19.554Z,1000.65
2017-03-19T12:17:31.499Z,1000.59
2017-03-19T12:18:44.267Z,1000.5
2017-03-19T12:19:56.830Z,1000.44
2017-03-19T12:21:09.355Z,1000.41
2017-03-19T12:22:21.275Z,1000.32
2017-03-19T12:23:33.529Z,1000.3
2017-03-19T12:24:45.773Z,1000.27
2017-03-19T12:25:58.022Z,1000.27
2017-03-19T12:27:10.263Z,1000.28
2017-03-19T12:28:22.809Z,1000.15
2017-03-19T12:29:35.330Z,1000.18
2017-03-19T12:30:47.267Z,1000.18
2017-03-19T12:31:59.764Z,1000.2
2017-03-19T12:33:12.288Z,1000.15
2017-03-19T12:34:24.842Z,1000.11
2017-03-19T12:35:37.360Z,1000.1
2017-03-19T12:36:49.908Z,1000.13
2017-03-19T12:38:02.451Z,1000.1
2017-03-19T12:39:14.675Z,1000.11
2017-03-19T12:40:26.597Z,1000.08
2017-03-19T12:41:39.109Z,1000.06
2017-03-19T12:42:51.627Z,999.95
2017-03-19T12:44:04.210Z,999.93
2017-03-19T12:45:16.421Z,999.94
2017-03-19T12:46:28.989Z,999.92
2017-03-19T12:47:41.539Z,999.93
2017-03-19T12:48:54.092Z,999.94
2017-03-19T12:50:06.335Z,999.87
2017-03-19T12:51:18.548Z,999.89
2017-03-19T12:52:30.781Z,999.86
2017-03-19T12:53:43.323Z,999.86
2017-03-19T12:54:55.869Z,999.83
2017-03-19T12:56:08.109Z,999.74
2017-03-19T12:57:20.314Z,999.75
2017-03-19T12:58:32.857Z,999.72
2017-03-19T12:59:45.373Z,999.75
2017-03-19T13:00:57.898Z,999.67
2017-03-19T13:02:10.411Z,999.73
2017-03-19T13:03:22.637Z,999.69
2017-03-19T13:04:35.178Z,999.65
2017-03-19T13:05:47.699Z,999.65
2017-03-19T13:06:59.929Z,999.57
2017-03-19T13:08:12.424Z,999.58
2017-03-19T13:09:24.645Z,999.57
2017-03-19T13:10:37.233Z,999.54
2017-03-19T13:11:49.782Z,999.51
2017-03-19T13:13:02.335Z,999.55
2017-03-19T13:14:14.583Z,999.57
2017-03-19T13:15:26.224Z,999.54
2017-03-19T13:16:38.750Z,999.51
2017-03-19T13:17:50.696Z,999.47
2017-03-19T13:19:03.239Z,999.44
2017-03-19T13:20:15.766Z,999.44
2017-03-19T13:21:28.297Z,999.36
2017-03-19T13:22:40.851Z,999.35
2017-03-19T13:23:53.096Z,999.36
2017-03-19T13:25:05.333Z,999.44
2017-03-19T13:26:17.558Z,999.47
2017-03-19T13:27:30.111Z,999.43
2017-03-19T13:28:42.655Z,999.52
2017-03-19T13:29:55.222Z,999.44
2017-03-19T13:31:07.442Z,999.42
2017-03-19T13:32:19.991Z,999.33
2017-03-19T13:33:32.488Z,999.24
2017-03-19T13:34:45.041Z,999.2
2017-03-19T13:35:57.557Z,999.3
2017-03-19T13:37:10.081Z,999.32
2017-03-19T13:38:21.701Z,999.43
2017-03-19T13:39:33.946Z,999.5
2017-03-19T13:40:46.184Z,999.47
2017-03-19T13:41:58.086Z,999.52
2017-03-19T13:43:10.284Z,999.48
2017-03-19T13:44:22.525Z,999.36
2017-03-19T13:45:34.755Z,999.26
2017-03-19T13:46:47.276Z,999.12
2017-03-19T13:47:59.526Z,999.09
2017-03-19T13:49:11.765Z,999.05
2017-03-19T13:50:24.031Z,999.1
2017-03-19T13:51:36.277Z,999.07
2017-03-19T13:52:48.798Z,999.08
2017-03-19T13:54:00.710Z,999.11
2017-03-19T13:55:12.932Z,999.11
2017-03-19T13:56:25.438Z,999.19
2017-03-19T13:57:37.989Z,999.19
2017-03-19T13:58:49.902Z,999.17
2017-03-19T14:00:02.393Z,999.17
2017-03-19T14:01:14.322Z,999.1
2017-03-19T14:02:26.867Z,999.07
2017-03-19T14:03:39.438Z,998.99
2017-03-19T14:04:51.982Z,998.94
2017-03-19T14:06:04.184Z,998.9
2017-03-19T14:07:16.426Z,998.85
2017-03-19T14:08:28.702Z,998.82
2017-03-19T14:09:41.283Z,998.78
2017-03-19T14:10:53.818Z,998.76
2017-03-19T14:12:06.057Z,998.74
2017-03-19T14:13:18.599Z,998.78
2017-03-19T14:14:31.142Z,998.77
2017-03-19T14:15:43.647Z,998.68
2017-03-19T14:16:55.269Z,998.72
2017-03-19T14:18:08.081Z,998.67
2017-03-19T14:19:20.339Z,998.59
2017-03-19T14:20:32.285Z,998.59
2017-03-19T14:21:44.546Z,998.56
2017-03-19T14:22:57.113Z,998.54
2017-03-19T14:24:09.663Z,998.57
2017-03-19T14:25:21.639Z,998.52
2017-03-19T14:26:33.851Z,998.49
2017-03-19T14:27:46.406Z,998.53
2017-03-19T14:28:58.646Z,998.48
2017-03-19T14:30:10.846Z,998.4
2017-03-19T14:31:23.372Z,998.44
2017-03-19T14:32:35.905Z,998.37
2017-03-19T14:33:48.430Z,998.42
2017-03-19T14:35:00.680Z,998.38
2017-03-19T14:36:12.875Z,998.39
2017-03-19T14:37:25.100Z,998.37
2017-03-19T14:38:37.624Z,998.24
2017-03-19T14:39:50.117Z,998.17
2017-03-19T14:41:02.661Z,998.25
2017-03-19T14:42:15.204Z,998.25
2017-03-19T14:43:27.419Z,998.09